Time;durP1;ratioP1;P1;durP2;ratioP2;P2;SDS_P1;SDS_P2;PMS_P1;PMS_P2;Temp;Humidity;BMP_temperature;BMP_pressure;BME280_temperature;BME280_humidity;BME280_pressure;Samples;Min_cycle;Max_cycle;Signal;HPM_P1;HPM_P2
2023/02/26 15:08:52;;;;;;;12.00;8.80;;;;;;;5.51;100.00;99981.00;102044;1293;601223;-62
2023/02/26 15:11:47;;;;;;;27.50;17.20;;;;;;;5.60;100.00;99978.68;104735;1269;62095;-58
2023/02/26 15:14:20;;;;;;;35.90;22.10;;;;;;;5.57;100.00;99985.82;105056;1263;60054;-59
2023/02/26 15:16:58;;;;;;;27.80;14.00;;;;;;;5.58;100.00;99995.05;105096;1265;72267;-59
2023/02/26 15:19:39;;;;;;;17.10;10.70;;;;;;;5.58;100.00;99998.85;104819;1264;68682;-57
2023/02/26 15:22:11;;;;;;;14.90;10.50;;;;;;;5.56;100.00;100004.88;104773;1266;426269;-58
2023/02/26 15:24:39;;;;;;;;;;;;;;;5.56;100.00;100010.98;104900;1265;63665;-58
2023/02/26 15:27:10;;;;;;;23.40;16.20;;;;;;;5.55;100.00;100005.04;105076;1261;61483;-58
2023/02/26 15:29:40;;;;;;;30.60;20.30;;;;;;;5.55;100.00;100005.55;104944;1267;73713;-59
2023/02/26 15:32:24;;;;;;;24.70;17.10;;;;;;;5.57;100.00;100003.65;105209;1261;67941;-60
2023/02/26 15:34:57;;;;;;;20.60;14.90;;;;;;;5.57;100.00;100002.42;104865;1260;73550;-59
2023/02/26 15:37:27;;;;;;;19.60;11.80;;;;;;;5.55;100.00;100004.48;105736;1253;62246;-58
2023/02/26 15:39:55;;;;;;;15.00;9.50;;;;;;;5.55;100.00;100003.96;105640;1253;60492;-60
2023/02/26 15:42:31;;;;;;;15.40;9.80;;;;;;;5.53;100.00;100009.39;105729;1256;74169;-58
2023/02/26 15:45:00;;;;;;;15.60;10.70;;;;;;;5.50;100.00;100008.51;105634;1256;67589;-62
2023/02/26 15:47:29;;;;;;;15.20;11.60;;;;;;;5.47;100.00;100010.02;105694;1257;73224;-58
2023/02/26 15:49:58;;;;;;;15.80;11.90;;;;;;;5.47;100.00;100013.08;105652;1254;61868;-61
2023/02/26 15:52:26;;;;;;;15.50;10.80;;;;;;;5.50;100.00;100014.55;105733;1254;61848;-58
2023/02/26 15:55:00;;;;;;;16.30;11.00;;;;;;;5.48;100.00;100016.05;105846;1254;73449;-62
2023/02/26 15:57:28;;;;;;;15.60;12.30;;;;;;;5.47;100.00;100017.70;105743;1257;68562;-60
2023/02/26 16:00:07;;;;;;;19.30;14.40;;;;;;;5.46;100.00;100021.84;105767;1254;74066;-59
2023/02/26 16:02:41;;;;;;;20.50;13.80;;;;;;;5.43;100.00;100027.51;105736;1253;63294;-60
2023/02/26 16:05:13;;;;;;;17.40;12.50;;;;;;;5.42;100.00;100031.38;105892;1257;61677;-60
2023/02/26 16:07:41;;;;;;;16.50;12.80;;;;;;;5.42;100.00;100030.15;105456;1254;74798;-57
2023/02/26 16:10:27;;;;;;;15.40;11.80;;;;;;;5.38;100.00;100032.79;105882;1256;68664;-60
2023/02/26 16:12:55;;;;;;;14.80;11.20;;;;;;;5.34;100.00;100034.20;105980;1256;72378;-60
2023/02/26 16:15:35;;;;;;;14.40;11.30;;;;;;;5.27;100.00;100031.29;105844;1255;62511;-58
2023/02/26 16:18:09;;;;;;;15.80;12.60;;;;;;;5.18;100.00;100022.77;105649;1253;61822;-59
2023/02/26 16:20:40;;;;;;;24.20;16.50;;;;;;;5.10;100.00;100021.84;105677;1253;74547;-63
2023/02/26 16:23:17;;;;;;;24.10;18.40;;;;;;;5.07;100.00;100021.96;105843;1256;67855;-59
2023/02/26 16:25:47;;;;;;;27.20;19.70;;;;;;;5.05;100.00;100022.77;105822;1257;74210;-60
2023/02/26 16:28:44;;;;;;;26.90;20.80;;;;;;;5.04;100.00;100024.86;105787;1257;61589;-58
2023/02/26 16:31:24;;;;;;;34.00;23.40;;;;;;;5.02;100.00;100026.23;105637;1257;61288;-59
2023/02/26 16:34:00;;;;;;;30.90;23.70;;;;;;;5.00;100.00;100025.38;105776;1254;73594;-60
2023/02/26 16:36:39;;;;;;;33.50;24.40;;;;;;;5.02;100.00;100024.02;105625;1257;66773;-60
2023/02/26 16:39:42;;;;;;;33.60;26.10;;;;;;;5.01;100.00;100026.33;105730;1254;74034;-58
2023/02/26 16:42:19;;;;;;;37.10;24.80;;;;;;;4.99;100.00;100034.96;105911;1259;62856;-61
2023/02/26 16:45:00;;;;;;;32.40;23.70;;;;;;;5.00;100.00;100037.95;105821;1256;60700;-58
2023/02/26 16:47:32;;;;;;;35.80;25.70;;;;;;;5.01;100.00;100041.70;105675;1257;74130;-60
2023/02/26 16:50:00;;;;;;;35.40;24.90;;;;;;;5.02;100.00;100044.84;105579;1253;68476;-60
2023/02/26 16:52:30;;;;;;;35.50;26.30;;;;;;;5.05;100.00;100047.96;105749;1253;73782;-58
2023/02/26 16:55:01;;;;;;;35.30;25.40;;;;;;;5.07;100.00;100061.00;105957;1253;63862;-59
2023/02/26 16:57:38;;;;;;;33.20;25.20;;;;;;;5.08;100.00;100057.98;105911;1253;61774;-63
2023/02/26 17:00:16;;;;;;;25.90;20.10;;;;;;;5.09;100.00;100054.98;105607;1254;74564;-60
2023/02/26 17:02:46;;;;;;;27.20;21.60;;;;;;;5.07;100.00;100049.80;105479;1253;68732;-61
2023/02/26 17:05:23;;;;;;;27.70;22.00;;;;;;;5.06;100.00;100049.90;105620;1253;73860;-58
2023/02/26 17:08:14;;;;;;;28.70;21.30;;;;;;;5.06;100.00;100041.73;105713;1253;63352;-59
2023/02/26 17:10:46;;;;;;;29.60;20.70;;;;;;;5.00;100.00;100038.79;105770;1253;61556;-59
2023/02/26 17:13:17;;;;;;;31.90;22.20;;;;;;;4.96;100.00;100042.89;105701;1253;72616;-58
2023/02/26 17:15:46;;;;;;;32.60;23.90;;;;;;;4.92;100.00;100039.15;105628;1257;67723;-58
2023/02/26 17:18:17;;;;;;;31.40;23.20;;;;;;;4.90;100.00;100041.56;106044;1252;73892;-60
2023/02/26 17:20:46;;;;;;;35.60;25.20;;;;;;;4.87;100.00;100045.41;105508;1253;61581;-58
2023/02/26 17:23:18;;;;;;;34.30;24.20;;;;;;;4.86;100.00;100045.41;105828;1253;60626;-58
2023/02/26 17:25:49;;;;;;;31.40;23.30;;;;;;;4.83;100.00;100039.77;105836;1253;74602;-57
2023/02/26 17:28:26;;;;;;;28.60;22.20;;;;;;;4.79;100.00;100036.42;105700;1253;68961;-61
2023/02/26 17:30:54;;;;;;;30.80;22.00;;;;;;;4.77;100.00;100039.57;105763;1257;73409;-59
2023/02/26 17:33:23;;;;;;;33.50;23.10;;;;;;;4.74;100.00;100037.77;105838;1253;61871;-57
2023/02/26 17:35:55;;;;;;;30.40;21.90;;;;;;;4.71;100.00;100046.17;105861;1252;61914;-58
2023/02/26 17:38:23;;;;;;;;;;;;;;;4.69;100.00;100051.41;105728;1256;73995;-59
2023/02/26 17:40:57;;;;;;;27.10;19.00;;;;;;;4.66;100.00;100045.67;105844;1254;68342;-58
2023/02/26 17:43:27;;;;;;;29.00;20.10;;;;;;;4.61;100.00;100040.04;105686;1253;73390;-58
2023/02/26 17:45:56;;;;;;;27.40;19.20;;;;;;;4.59;100.00;100042.37;106085;1253;63200;-59
2023/02/26 17:48:24;;;;;;;29.10;20.10;;;;;;;4.56;100.00;100046.39;105754;1257;61909;-58
2023/02/26 17:50:54;;;;;;;26.10;19.50;;;;;;;4.56;100.00;100050.35;105843;1252;74884;-58
2023/02/26 17:53:26;;;;;;;28.80;20.60;;;;;;;4.55;100.00;100055.45;105821;1258;67724;-58
2023/02/26 17:55:55;;;;;;;29.70;20.50;;;;;;;4.55;100.00;100068.92;105638;1257;72705;-58
2023/02/26 17:58:29;;;;;;;28.30;19.10;;;;;;;4.56;100.00;100081.17;105724;1253;63522;-58
2023/02/26 18:00:58;;;;;;;27.90;19.40;;;;;;;4.61;100.00;100095.64;105695;1257;60840;-58
2023/02/26 18:03:27;;;;;;;28.00;18.20;;;;;;;4.67;100.00;100104.94;106107;1254;74643;-59
2023/02/26 18:05:56;;;;;;;21.70;15.60;;;;;;;4.73;100.00;100111.61;105894;1253;68428;-59
2023/02/26 18:08:27;;;;;;;23.80;17.20;;;;;;;4.77;100.00;100103.74;105644;1253;74127;-57
2023/02/26 18:10:56;;;;;;;27.60;18.80;;;;;;;4.79;100.00;100121.96;105701;1252;62260;-57
2023/02/26 18:13:25;;;;;;;24.70;17.20;;;;;;;4.81;100.00;100124.70;105867;1256;61193;-57
2023/02/26 18:16:01;;;;;;;23.60;16.10;;;;;;;4.83;100.00;100119.41;105711;1253;74956;-57
2023/02/26 18:18:32;;;;;;;27.10;18.70;;;;;;;4.83;100.00;100116.05;105519;1254;67580;-58
2023/02/26 18:21:01;;;;;;;30.30;19.90;;;;;;;4.82;100.00;100122.60;105947;1252;74248;-59
2023/02/26 18:23:31;;;;;;;24.50;16.10;;;;;;;4.80;100.00;100139.14;106083;1257;61568;-58
2023/02/26 18:26:01;;;;;;;25.30;16.60;;;;;;;4.78;100.00;100141.08;105839;1256;60973;-59
2023/02/26 18:28:31;;;;;;;26.90;18.30;;;;;;;4.76;100.00;100144.33;105777;1257;74657;-57
2023/02/26 18:31:01;;;;;;;24.70;16.30;;;;;;;4.73;100.00;100144.11;105937;1253;67362;-59
2023/02/26 18:33:32;;;;;;;22.60;15.00;;;;;;;4.71;100.00;100141.58;105658;1253;72876;-59
2023/02/26 18:36:01;;;;;;;18.80;13.10;;;;;;;4.71;100.00;100143.77;105744;1253;61548;-58
2023/02/26 18:38:30;;;;;;;18.20;11.60;;;;;;;4.71;100.00;100148.42;105695;1257;60694;-58
2023/02/26 18:41:00;;;;;;;10.20;7.20;;;;;;;4.68;100.00;100139.62;105876;1252;74561;-59
2023/02/26 18:43:30;;;;;;;10.30;7.50;;;;;;;4.67;100.00;100145.88;105890;1252;67409;-61
2023/02/26 18:46:01;;;;;;;10.20;7.30;;;;;;;4.67;100.00;100142.42;105606;1253;73410;-58
2023/02/26 18:48:30;;;;;;;12.30;8.00;;;;;;;4.67;100.00;100133.35;105708;1259;62258;-59
2023/02/26 18:50:59;;;;;;;8.20;5.30;;;;;;;4.63;100.00;100129.53;105798;1252;60822;-58
2023/02/26 18:53:32;;;;;;;8.40;4.50;;;;;;;4.57;100.00;100122.39;105783;1257;74024;-60
2023/02/26 18:56:01;;;;;;;8.30;4.90;;;;;;;4.55;100.00;100120.40;105599;1257;68394;-58
2023/02/26 18:58:31;;;;;;;10.80;6.90;;;;;;;4.54;100.00;100118.09;105675;1253;74415;-59
2023/02/26 19:01:03;;;;;;;11.60;7.90;;;;;;;4.47;100.00;100112.39;106085;1252;62821;-62
2023/02/26 19:03:32;;;;;;;9.90;6.10;;;;;;;4.40;100.00;100111.64;105793;1256;61926;-58
2023/02/26 19:06:03;;;;;;;9.40;7.10;;;;;;;4.37;100.00;100116.61;105740;1252;73683;-57
2023/02/26 19:08:35;;;;;;;8.20;5.40;;;;;;;4.33;100.00;100119.15;105614;1253;68997;-58
2023/02/26 19:11:03;;;;;;;8.40;6.30;;;;;;;4.31;100.00;100131.00;105707;1253;74222;-59
2023/02/26 19:13:36;;;;;;;10.20;6.40;;;;;;;4.33;100.00;100156.38;105682;1257;60892;-56
2023/02/26 19:16:05;;;;;;;9.90;6.90;;;;;;;4.35;100.00;100165.59;105926;1253;61917;-61
2023/02/26 19:18:34;;;;;;;10.00;7.00;;;;;;;4.37;100.00;100170.96;105938;1252;73710;-61
2023/02/26 19:21:04;;;;;;;10.10;6.80;;;;;;;4.39;100.00;100170.23;105750;1253;67034;-58
2023/02/26 19:23:36;;;;;;;9.90;6.50;;;;;;;4.45;100.00;100177.92;105673;1257;74562;-58
2023/02/26 19:26:04;;;;;;;9.60;6.80;;;;;;;4.51;100.00;100175.14;105864;1252;60805;-57
2023/02/26 19:28:33;;;;;;;8.40;5.50;;;;;;;4.53;100.00;100165.45;105863;1256;62119;-62
2023/02/26 19:31:05;;;;;;;8.00;5.80;;;;;;;4.53;100.00;100168.35;105754;1256;75132;-57
2023/02/26 19:33:34;;;;;;;7.60;5.20;;;;;;;4.54;100.00;100174.65;105608;1253;67704;-57
2023/02/26 19:36:05;;;;;;;9.80;6.30;;;;;;;4.54;100.00;100182.69;105880;1253;74270;-59
2023/02/26 19:38:36;;;;;;;7.40;4.90;;;;;;;4.55;100.00;100188.02;105763;1253;62147;-59
2023/02/26 19:41:05;;;;;;;7.20;5.20;;;;;;;4.53;100.00;100190.20;105757;1257;61866;-57
2023/02/26 19:43:33;;;;;;;7.10;5.10;;;;;;;4.51;100.00;100190.40;105897;1256;75142;-62
2023/02/26 19:46:03;;;;;;;7.50;4.60;;;;;;;4.50;100.00;100192.03;105868;1256;69219;-59
2023/02/26 19:48:33;;;;;;;9.20;5.00;;;;;;;4.50;100.00;100190.83;105786;1253;73519;-59
2023/02/26 19:51:03;;;;;;;7.10;4.10;;;;;;;4.48;100.00;100179.89;105612;1253;61616;-59
2023/02/26 19:53:33;;;;;;;6.40;3.70;;;;;;;4.45;100.00;100177.47;105895;1252;61918;-61
2023/02/26 19:56:04;;;;;;;6.50;3.80;;;;;;;4.38;100.00;100172.91;106274;1252;75356;-60
2023/02/26 19:58:35;;;;;;;6.00;3.50;;;;;;;4.34;100.00;100180.83;105897;1253;67560;-57
2023/02/26 20:01:04;;;;;;;5.70;3.50;;;;;;;4.32;100.00;100181.27;105710;1257;73180;-58
2023/02/26 20:03:35;;;;;;;5.80;3.30;;;;;;;4.29;100.00;100178.91;105791;1253;63528;-61
2023/02/26 20:06:07;;;;;;;4.70;2.60;;;;;;;4.28;100.00;100181.38;105909;1252;61792;-64
2023/02/26 20:08:35;;;;;;;4.40;2.60;;;;;;;4.26;100.00;100167.00;105669;1253;74362;-58
2023/02/26 20:11:04;;;;;;;5.30;2.50;;;;;;;4.18;100.00;100163.13;105694;1253;67019;-58
2023/02/26 20:13:33;;;;;;;4.90;2.40;;;;;;;4.10;100.00;100179.10;105773;1257;72853;-57
2023/02/26 20:16:04;;;;;;;4.20;2.70;;;;;;;4.06;100.00;100182.95;105882;1257;61866;-59
2023/02/26 20:18:33;;;;;;;5.00;2.10;;;;;;;4.05;100.00;100174.93;105602;1252;61822;-56
2023/02/26 20:21:07;;;;;;;5.90;3.20;;;;;;;4.05;100.00;100180.14;105783;1256;75480;-58
2023/02/26 20:23:38;;;;;;;4.70;2.50;;;;;;;4.01;100.00;100175.35;105652;1256;68345;-58
2023/02/26 20:26:08;;;;;;;4.40;2.90;;;;;;;3.98;100.00;100169.28;105679;1253;74794;-58
2023/02/26 20:28:37;;;;;;;4.20;2.80;;;;;;;3.92;100.00;100165.30;105615;1253;61911;-57
2023/02/26 20:31:06;;;;;;;3.60;2.40;;;;;;;3.87;100.00;100155.86;105684;1257;61086;-57
2023/02/26 20:33:36;;;;;;;5.10;3.40;;;;;;;3.85;100.00;100165.84;105866;1252;75480;-60
2023/02/26 20:36:07;;;;;;;4.70;3.10;;;;;;;3.85;100.00;100169.92;105683;1253;68410;-57
2023/02/26 20:38:35;;;;;;;6.00;3.20;;;;;;;3.86;100.00;100173.30;105762;1253;74022;-60
2023/02/26 20:41:04;;;;;;;4.80;3.10;;;;;;;3.87;100.00;100186.75;105728;1257;60788;-56
2023/02/26 20:43:33;;;;;;;4.60;3.00;;;;;;;3.90;100.00;100200.77;105794;1252;61017;-59
2023/02/26 20:46:06;;;;;;;5.30;3.40;;;;;;;3.89;100.00;100209.11;105637;1253;74107;-58
2023/02/26 20:48:40;;;;;;;6.00;3.50;;;;;;;3.91;100.00;100209.27;105753;1257;67602;-58
2023/02/26 20:51:10;;;;;;;4.60;3.00;;;;;;;3.94;100.00;100205.76;105757;1256;72270;-61
2023/02/26 20:53:39;;;;;;;6.20;3.40;;;;;;;3.94;100.00;100206.11;105649;1253;61220;-57
2023/02/26 20:56:11;;;;;;;;;;;;;;;3.90;100.00;100208.99;105646;1253;60641;-61
2023/02/26 20:58:41;;;;;;;5.30;2.80;;;;;;;3.89;100.00;100218.84;105729;1253;76207;-58
2023/02/26 21:01:09;;;;;;;5.60;3.20;;;;;;;3.89;100.00;100232.98;105660;1253;68601;-58
2023/02/26 21:03:38;;;;;;;5.30;3.40;;;;;;;3.90;100.00;100233.75;105818;1257;73219;-58
2023/02/26 21:06:07;;;;;;;4.90;3.10;;;;;;;3.92;100.00;100229.62;105800;1253;61939;-57
2023/02/26 21:08:36;;;;;;;5.00;3.30;;;;;;;3.91;100.00;100230.77;105843;1253;61519;-58
2023/02/26 21:11:06;;;;;;;6.10;3.10;;;;;;;3.93;100.00;100227.17;105762;1253;75947;-58
2023/02/26 21:13:39;;;;;;;4.60;2.70;;;;;;;3.89;100.00;100228.81;105661;1256;66626;-57
2023/02/26 21:16:08;;;;;;;4.20;2.70;;;;;;;3.86;100.00;100252.55;105686;1258;73887;-60
2023/02/26 21:18:36;;;;;;;5.30;2.80;;;;;;;3.83;100.00;100262.66;105699;1253;60663;-57
2023/02/26 21:21:05;;;;;;;6.60;3.60;;;;;;;3.82;100.00;100261.29;105795;1254;61616;-58
2023/02/26 21:23:34;;;;;;;4.30;2.80;;;;;;;3.78;100.00;100263.90;105708;1252;75651;-58
2023/02/26 21:26:03;;;;;;;5.80;3.10;;;;;;;3.76;100.00;100256.02;105747;1257;66647;-61
2023/02/26 21:28:32;;;;;;;5.50;3.10;;;;;;;3.78;100.00;100258.08;105747;1257;74280;-57
2023/02/26 21:31:01;;;;;;;7.40;4.40;;;;;;;3.82;100.00;100260.65;105759;1259;60970;-59
2023/02/26 21:33:32;;;;;;;6.00;4.10;;;;;;;3.79;100.00;100253.05;105717;1252;61758;-58
2023/02/26 21:36:00;;;;;;;5.70;3.20;;;;;;;3.72;100.00;100243.00;105418;1257;75233;-62
2023/02/26 21:38:29;;;;;;;5.40;3.30;;;;;;;3.64;100.00;100243.14;105788;1253;68235;-58
2023/02/26 21:41:01;;;;;;;5.50;3.40;;;;;;;3.60;100.00;100236.52;105351;1253;73496;-58
2023/02/26 21:43:29;;;;;;;4.70;3.20;;;;;;;3.57;100.00;100232.70;105789;1257;62524;-60
2023/02/26 21:45:58;;;;;;;5.70;3.20;;;;;;;3.53;100.00;100224.29;105839;1253;60909;-60
2023/02/26 21:48:28;;;;;;;5.90;3.80;;;;;;;3.49;100.00;100225.67;106184;1256;75644;-59
2023/02/26 21:50:58;;;;;;;6.20;3.90;;;;;;;3.45;100.00;100228.41;105810;1253;68871;-59
2023/02/26 21:53:27;;;;;;;6.80;4.40;;;;;;;3.41;100.00;100226.20;105578;1252;74539;-59
2023/02/26 21:55:56;;;;;;;7.10;4.40;;;;;;;3.38;100.00;100229.19;105736;1254;61894;-59
2023/02/26 21:58:31;;;;;;;7.10;5.10;;;;;;;3.37;100.00;100236.66;106069;1256;61702;-60
2023/02/26 22:01:00;;;;;;;7.60;5.10;;;;;;;3.34;100.00;100240.17;105607;1257;75399;-58
2023/02/26 22:03:28;;;;;;;7.90;5.30;;;;;;;3.32;100.00;100236.30;106732;1255;67694;-61
2023/02/26 22:05:57;;;;;;;8.60;6.30;;;;;;;3.30;100.00;100233.05;105659;1254;73981;-58
2023/02/26 22:08:25;;;;;;;9.60;5.80;;;;;;;3.29;100.00;100223.82;105818;1254;63445;-58
2023/02/26 22:10:56;;;;;;;11.90;7.10;;;;;;;3.29;100.00;100224.87;105881;1256;61281;-62
2023/02/26 22:13:27;;;;;;;12.90;7.50;;;;;;;3.28;100.00;100234.53;105828;1253;74466;-57
2023/02/26 22:15:55;;;;;;;9.40;6.10;;;;;;;3.30;100.00;100246.05;105694;1257;68113;-58
2023/02/26 22:18:25;;;;;;;10.30;6.40;;;;;;;3.32;100.00;100254.10;105764;1254;73081;-56
2023/02/26 22:20:53;;;;;;;9.20;6.20;;;;;;;3.32;100.00;100258.61;106114;1255;63576;-61
2023/02/26 22:23:23;;;;;;;10.20;6.60;;;;;;;3.32;100.00;100265.12;105654;1254;60827;-59
2023/02/26 22:25:51;;;;;;;15.30;6.50;;;;;;;3.32;100.00;100275.08;105892;1256;75093;-57
2023/02/26 22:28:20;;;;;;;8.10;5.50;;;;;;;3.33;100.00;100284.12;105943;1256;67766;-58
2023/02/26 22:30:50;;;;;;;7.40;4.90;;;;;;;3.35;100.00;100285.24;106234;1256;73977;-61
2023/02/26 22:33:20;;;;;;;9.60;6.30;;;;;;;3.38;100.00;100285.06;105812;1254;62855;-57
2023/02/26 22:35:50;;;;;;;9.50;6.70;;;;;;;3.36;100.00;100294.95;106133;1256;60614;-58
2023/02/26 22:38:18;;;;;;;9.80;6.90;;;;;;;3.36;100.00;100306.70;105923;1254;75012;-57
2023/02/26 22:40:49;;;;;;;9.20;6.20;;;;;;;3.39;100.00;100305.17;106186;1254;68165;-61
2023/02/26 22:43:19;;;;;;;6.00;4.00;;;;;;;3.40;100.00;100305.63;105831;1256;73772;-58
2023/02/26 22:45:51;;;;;;;7.00;4.20;;;;;;;3.40;100.00;100313.88;105830;1257;63034;-57
2023/02/26 22:48:21;;;;;;;6.80;4.20;;;;;;;3.41;100.00;100317.96;105940;1255;61698;-58
2023/02/26 22:50:50;;;;;;;6.20;4.20;;;;;;;3.43;100.00;100318.83;105670;1256;75287;-59
2023/02/26 22:53:20;;;;;;;7.40;4.90;;;;;;;3.43;100.00;100313.80;105790;1254;68719;-61
2023/02/26 22:55:52;;;;;;;6.40;4.40;;;;;;;3.42;100.00;100318.51;105621;1256;72873;-58
2023/02/26 22:58:21;;;;;;;5.90;3.60;;;;;;;3.41;100.00;100322.85;105892;1254;62427;-60
2023/02/26 23:00:51;;;;;;;5.90;3.80;;;;;;;3.39;100.00;100328.59;105638;1254;60421;-59
2023/02/26 23:03:20;;;;;;;6.00;3.70;;;;;;;3.35;100.00;100336.09;105246;1260;75760;-58
2023/02/26 23:05:49;;;;;;;5.60;3.60;;;;;;;3.35;100.00;100340.95;105786;1257;69025;-58
2023/02/26 23:08:17;;;;;;;6.70;4.20;;;;;;;3.33;100.00;100337.14;105740;1257;74334;-60
2023/02/26 23:10:46;;;;;;;5.60;3.30;;;;;;;3.35;100.00;100339.27;105926;1259;61669;-62
2023/02/26 23:13:14;;;;;;;5.70;3.70;;;;;;;3.35;100.00;100347.23;105612;1254;60435;-58
2023/02/26 23:15:45;;;;;;;8.20;4.80;;;;;;;3.36;100.00;100348.70;105730;1256;75833;-58
2023/02/26 23:18:18;;;;;;;8.40;4.80;;;;;;;3.39;100.00;100354.17;105839;1256;67974;-58
2023/02/26 23:20:48;;;;;;;7.00;3.70;;;;;;;3.42;100.00;100358.05;105921;1254;73325;-61
2023/02/26 23:23:16;;;;;;;4.80;3.10;;;;;;;3.41;100.00;100353.26;105984;1259;62166;-59
2023/02/26 23:25:46;;;;;;;5.40;2.70;;;;;;;3.44;100.00;100353.95;105692;1254;61772;-62
2023/02/26 23:28:17;;;;;;;5.40;3.20;;;;;;;3.47;100.00;100356.77;105680;1256;75391;-59
2023/02/26 23:30:45;;;;;;;6.10;3.80;;;;;;;3.48;100.00;100354.20;105942;1256;67589;-60
2023/02/26 23:33:14;;;;;;;4.70;2.10;;;;;;;3.50;100.00;100355.64;105717;1254;74155;-58
2023/02/26 23:35:43;;;;;;;6.10;2.60;;;;;;;3.49;100.00;100352.25;105997;1255;63763;-61
2023/02/26 23:38:12;;;;;;;6.80;2.20;;;;;;;3.47;100.00;100352.73;105799;1256;60543;-57
2023/02/26 23:40:41;;;;;;;4.50;2.00;;;;;;;3.46;100.00;100352.25;105823;1255;74351;-58
2023/02/26 23:43:10;;;;;;;3.40;1.50;;;;;;;3.44;100.00;100354.09;105777;1255;68288;-59
2023/02/26 23:45:39;;;;;;;3.30;1.30;;;;;;;3.43;100.00;100346.95;105748;1255;73552;-61
2023/02/26 23:48:08;;;;;;;2.40;1.30;;;;;;;3.44;100.00;100343.04;105794;1257;61904;-58
2023/02/26 23:50:39;;;;;;;2.40;1.10;;;;;;;3.44;100.00;100344.64;105765;1255;61853;-58
2023/02/26 23:53:08;;;;;;;3.60;1.20;;;;;;;3.42;100.00;100356.80;105760;1256;74550;-57
2023/02/26 23:55:37;;;;;;;2.90;1.30;;;;;;;3.41;100.00;100364.99;106071;1257;68111;-59
2023/02/26 23:58:06;;;;;;;2.40;1.10;;;;;;;3.41;100.00;100364.27;105814;1256;74015;-57
